Time;durP1;ratioP1;P1;durP2;ratioP2;P2;SDS_P1;SDS_P2;PMS_P1;PMS_P2;Temp;Humidity;BMP_temperature;BMP_pressure;BME280_temperature;BME280_humidity;BME280_pressure;Samples;Min_cycle;Max_cycle;Signal;HPM_P1;HPM_P2
2022/06/11 00:01:42;;;;;;;11.80;5.15;;;;;;;15.42;95.56;101937.59;5054126;28;20042;-93
2022/06/11 00:04:23;;;;;;;9.90;5.18;;;;;;;15.37;96.12;101940.19;5012898;28;20482;-93
2022/06/11 00:07:02;;;;;;;11.90;5.50;;;;;;;15.37;96.62;101940.19;5023909;28;20018;-93
2022/06/11 00:09:40;;;;;;;11.77;4.93;;;;;;;15.36;96.48;101943.97;5020414;28;20029;-92
2022/06/11 00:12:45;;;;;;;;;;;;;;;;;;;;;
2022/06/11 00:15:28;;;;;;;10.38;5.00;;;;;;;15.34;96.42;101945.22;5034995;28;20048;-92
2022/06/11 00:18:21;;;;;;;7.20;4.88;;;;;;;15.26;96.51;101941.72;5020155;28;20048;-92
2022/06/11 00:20:58;;;;;;;8.70;5.37;;;;;;;15.26;96.84;101946.34;5021974;28;20121;-93
2022/06/11 00:23:33;;;;;;;11.27;4.93;;;;;;;15.24;97.04;101937.53;5007544;28;20077;-92
2022/06/11 00:26:33;;;;;;;;;;;;;;;;;;;;;
2022/06/11 00:33:07;;;;;;;;;;;;;;;;;;;;;
2022/06/11 00:39:18;;;;;;;10.35;4.90;;;;;;;14.98;97.93;101933.88;4926025;29;20112;-93
2022/06/11 00:42:36;;;;;;;11.98;5.15;;;;;;;14.95;98.15;101933.50;4981301;28;20442;-93
2022/06/11 00:46:01;;;;;;;10.50;5.22;;;;;;;14.91;98.07;101928.47;4972487;29;20051;-93
2022/06/11 00:48:42;;;;;;;10.02;5.40;;;;;;;14.84;99.03;101935.03;5069433;28;20057;-92
2022/06/11 00:51:31;;;;;;;;;;;;;;;;;;;;;
2022/06/11 00:54:13;;;;;;;10.13;5.60;;;;;;;14.76;99.60;101933.34;5045091;28;20105;-92
2022/06/11 00:57:15;;;;;;;8.10;5.25;;;;;;;14.74;99.54;101932.75;5021498;28;20124;-92
2022/06/11 00:59:56;;;;;;;10.20;5.07;;;;;;;14.73;99.40;101925.59;5053911;28;20149;-92
2022/06/11 01:02:22;;;;;;;11.38;5.30;;;;;;;14.72;99.61;101926.69;5020826;28;20037;-92
2022/06/11 01:04:56;;;;;;;11.20;5.07;;;;;;;14.69;100.00;101927.06;5030521;28;20036;-92
2022/06/11 01:08:00;;;;;;;7.20;4.65;;;;;;;14.69;100.00;101933.41;5013691;28;20105;-91
2022/06/11 01:10:44;;;;;;;7.43;4.80;;;;;;;14.72;100.00;101934.88;5042416;28;20120;-91
2022/06/11 01:13:52;;;;;;;10.95;5.00;;;;;;;14.69;100.00;101932.53;5036797;28;20036;-91
2022/06/11 01:16:53;;;;;;;;;;;;;;;;;;;;;
2022/06/11 01:19:56;;;;;;;13.25;5.75;;;;;;;14.61;100.00;101919.13;5034384;28;20521;-92
2022/06/11 01:23:10;;;;;;;9.15;5.65;;;;;;;14.64;100.00;101925.00;5027120;28;20089;-92
2022/06/11 01:26:30;;;;;;;11.02;6.05;;;;;;;14.64;100.00;101925.00;5020607;28;20535;-93
2022/06/11 01:47:43;;;;;;;;;;;;;;;;;;;;;
2022/06/11 01:51:11;;;;;;;;;;;;;;;;;;;;;
2022/06/11 02:11:31;;;;;;;12.07;5.88;;;;;;;14.28;100.00;101909.97;4974732;28;20081;-93
2022/06/11 02:15:11;;;;;;;8.60;6.25;;;;;;;14.26;100.00;101911.25;4974602;28;20039;-93
2022/06/11 02:54:44;;;;;;;;;;;;;;;;;;;;;
2022/06/11 03:43:36;;;;;;;;;;;;;;;;;;;;;
2022/06/11 03:59:57;;;;;;;;;;;;;;;;;;;;;
2022/06/11 04:02:53;;;;;;;6.72;3.97;;;;;;;14.95;98.80;102013.56;4954682;28;20054;-92
2022/06/11 04:06:10;;;;;;;;;;;;;;;;;;;;;
2022/06/11 04:10:09;;;;;;;;;;;;;;;;;;;;;
2022/06/11 04:16:38;;;;;;;;;;;;;;;;;;;;;
2022/06/11 04:20:12;;;;;;;;;;;;;;;;;;;;;
2022/06/11 04:51:28;;;;;;;;;;;;;;;;;;;;;
2022/06/11 05:24:36;;;;;;;8.02;3.35;;;;;;;16.28;83.70;102039.28;4871660;29;20515;-94
2022/06/11 05:27:09;;;;;;;7.60;3.30;;;;;;;16.36;83.26;102045.50;5009488;28;20037;-94
2022/06/11 05:30:00;;;;;;;6.75;3.13;;;;;;;16.35;82.67;102043.84;5018573;28;20048;-95
2022/06/11 05:32:33;;;;;;;9.27;2.60;;;;;;;16.34;80.02;102042.16;5011186;28;20056;-94
2022/06/11 05:35:04;;;;;;;10.75;3.25;;;;;;;16.29;79.34;102032.72;5018648;28;20034;-93
2022/06/11 05:37:30;;;;;;;10.52;2.80;;;;;;;16.35;77.71;102043.84;5017969;28;20033;-86
2022/06/11 05:39:58;;;;;;;9.83;2.83;;;;;;;16.34;78.04;102036.69;5034539;28;20055;-87
2022/06/11 05:42:25;;;;;;;9.07;2.63;;;;;;;16.37;76.15;102038.97;5016889;28;20087;-88
2022/06/11 05:44:51;;;;;;;15.05;2.40;;;;;;;16.41;75.24;102045.69;5016985;28;20025;-88
2022/06/11 05:47:19;;;;;;;9.63;2.53;;;;;;;16.39;74.06;102045.91;5016969;28;20057;-88
2022/06/11 05:49:49;;;;;;;11.73;2.90;;;;;;;16.46;73.89;102041.19;5016069;28;20053;-86
2022/06/11 05:52:28;;;;;;;10.20;2.50;;;;;;;16.55;73.88;102047.22;5016698;28;20039;-87
2022/06/11 05:54:56;;;;;;;11.93;2.42;;;;;;;16.62;73.47;102042.53;5017005;28;20033;-87
2022/06/11 05:57:24;;;;;;;9.53;2.77;;;;;;;16.69;73.32;102049.81;5016495;28;20060;-87
2022/06/11 06:00:05;;;;;;;12.23;2.72;;;;;;;16.79;73.38;102053.72;5016825;28;20060;-88
2022/06/11 06:02:33;;;;;;;9.23;2.28;;;;;;;16.90;71.96;102045.81;5016136;28;20037;-89
2022/06/11 06:04:59;;;;;;;14.23;3.13;;;;;;;16.96;70.47;102053.97;5000021;28;20037;-87
2022/06/11 06:07:24;;;;;;;15.23;3.33;;;;;;;17.00;69.59;102048.88;5016242;28;20040;-87
2022/06/11 06:09:50;;;;;;;15.63;2.78;;;;;;;17.07;69.39;102055.09;5034857;28;20084;-87
2022/06/11 06:12:16;;;;;;;17.00;2.60;;;;;;;17.09;68.46;102057.63;5016578;28;20033;-87
2022/06/11 06:14:42;;;;;;;13.57;2.60;;;;;;;17.05;68.32;102037.22;5032584;28;20037;-87
2022/06/11 06:17:08;;;;;;;10.90;2.27;;;;;;;17.03;68.78;102059.38;5016020;28;20076;-86
2022/06/11 06:19:34;;;;;;;15.90;2.83;;;;;;;17.03;68.52;102055.81;5033675;28;20029;-87
2022/06/11 06:22:04;;;;;;;9.95;1.90;;;;;;;17.07;68.66;102057.84;5015936;28;20391;-87
2022/06/11 06:24:33;;;;;;;13.60;3.23;;;;;;;17.16;68.05;102061.13;5049579;28;20112;-86
2022/06/11 06:26:59;;;;;;;11.80;2.60;;;;;;;17.32;67.60;102068.72;5016431;28;20041;-87
2022/06/11 06:29:25;;;;;;;10.55;2.47;;;;;;;17.47;67.37;102073.78;5016352;28;20069;-87
2022/06/11 06:31:50;;;;;;;9.87;2.57;;;;;;;17.63;67.13;102066.00;5015984;28;20060;-87
2022/06/11 06:34:16;;;;;;;9.00;2.50;;;;;;;17.66;65.86;102068.28;4999592;28;20381;-86
2022/06/11 06:36:44;;;;;;;13.68;3.22;;;;;;;17.68;65.96;102064.19;5033737;28;20033;-86
2022/06/11 06:39:10;;;;;;;9.75;2.47;;;;;;;17.86;66.52;102062.47;5000290;28;20088;-86
2022/06/11 06:41:35;;;;;;;17.17;2.70;;;;;;;17.96;66.41;102059.19;4983986;28;20030;-86
2022/06/11 06:44:03;;;;;;;14.33;2.70;;;;;;;17.98;65.64;102066.13;5015877;28;20831;-86
2022/06/11 06:46:28;;;;;;;21.35;4.00;;;;;;;18.09;66.11;102082.84;5016228;28;20032;-86
2022/06/11 06:48:54;;;;;;;15.30;2.63;;;;;;;18.16;65.42;102078.94;4999695;28;20120;-86
2022/06/11 06:51:20;;;;;;;16.30;3.63;;;;;;;18.13;64.90;102078.53;5016541;28;20026;-85
2022/06/11 06:53:46;;;;;;;17.20;3.83;;;;;;;18.10;65.70;102079.88;4999912;28;20037;-86
2022/06/11 06:56:12;;;;;;;14.33;2.70;;;;;;;18.05;65.65;102080.59;5033672;28;20040;-86
2022/06/11 06:58:38;;;;;;;14.80;3.38;;;;;;;18.19;66.10;102074.88;5015948;28;20079;-87
2022/06/11 07:01:04;;;;;;;18.75;3.22;;;;;;;18.29;65.36;102068.78;5033944;28;20034;-86
2022/06/11 07:03:33;;;;;;;14.60;3.20;;;;;;;18.13;65.86;102067.56;5016562;28;20454;-86
2022/06/11 07:06:02;;;;;;;19.48;3.47;;;;;;;18.04;65.67;102076.16;5033165;28;20087;-86
2022/06/11 07:08:27;;;;;;;18.70;3.03;;;;;;;18.04;65.09;102069.81;5015812;28;20116;-85
2022/06/11 07:10:54;;;;;;;15.80;3.43;;;;;;;18.14;64.25;102064.56;4999561;28;20103;-86
2022/06/11 07:13:21;;;;;;;17.25;3.50;;;;;;;18.28;64.00;102075.34;5016404;28;20034;-86
2022/06/11 07:15:51;;;;;;;19.00;4.15;;;;;;;18.23;64.51;102065.91;5015801;28;20033;-87
2022/06/11 07:18:19;;;;;;;20.03;3.40;;;;;;;18.18;65.01;102064.97;5015668;28;20033;-88
2022/06/11 07:20:47;;;;;;;17.95;3.67;;;;;;;18.21;65.89;102059.81;5015650;28;20029;-88
2022/06/11 07:23:22;;;;;;;18.02;3.65;;;;;;;18.35;64.74;102065.06;5015952;28;20076;-88
2022/06/11 07:25:52;;;;;;;14.95;3.15;;;;;;;18.59;63.98;102068.69;5015527;28;20189;-88
2022/06/11 07:28:24;;;;;;;16.80;3.97;;;;;;;18.68;64.42;102069.16;5016426;28;20112;-88
2022/06/11 07:30:50;;;;;;;16.50;3.90;;;;;;;18.85;64.66;102074.75;5049209;28;20096;-88
2022/06/11 07:33:21;;;;;;;15.60;3.30;;;;;;;19.02;64.08;102083.13;5016326;28;20032;-88
2022/06/11 07:35:47;;;;;;;19.33;3.60;;;;;;;18.97;63.75;102083.84;5015806;28;20030;-88
2022/06/11 07:38:14;;;;;;;25.27;3.72;;;;;;;18.95;63.28;102082.41;5032223;28;20125;-88
2022/06/11 07:40:40;;;;;;;22.58;3.78;;;;;;;18.96;63.25;102078.59;5049176;28;20128;-88
2022/06/11 07:43:07;;;;;;;18.90;3.77;;;;;;;19.15;62.90;102084.75;5015385;28;20036;-88
2022/06/11 07:45:34;;;;;;;14.68;3.35;;;;;;;19.23;63.66;102087.97;5015658;28;20449;-88
2022/06/11 07:48:06;;;;;;;15.75;3.83;;;;;;;19.22;62.35;102085.44;5015510;28;20036;-88
2022/06/11 07:50:34;;;;;;;19.08;3.30;;;;;;;19.23;62.42;102087.97;4999020;28;20057;-88
2022/06/11 07:53:02;;;;;;;18.42;4.13;;;;;;;19.24;62.79;102084.13;5015441;28;20045;-88
2022/06/11 07:55:29;;;;;;;22.90;3.37;;;;;;;19.15;62.36;102082.00;5048771;28;20022;-87
2022/06/11 07:58:01;;;;;;;15.32;3.42;;;;;;;19.21;62.94;102076.38;5014828;28;20037;-88
2022/06/11 08:00:30;;;;;;;22.85;3.78;;;;;;;19.31;62.59;102070.25;5015818;28;20033;-88
2022/06/11 08:02:56;;;;;;;15.43;3.63;;;;;;;19.30;62.22;102087.84;5015052;28;20087;-88
2022/06/11 08:05:22;;;;;;;20.02;3.63;;;;;;;19.13;61.95;102090.50;5031373;28;20508;-88
2022/06/11 08:07:51;;;;;;;19.40;3.53;;;;;;;18.73;62.85;102086.59;5014690;28;20033;-88
2022/06/11 08:10:19;;;;;;;17.63;3.58;;;;;;;18.51;63.64;102085.50;5048298;28;20025;-89
2022/06/11 08:12:44;;;;;;;17.27;3.28;;;;;;;18.67;63.32;102092.22;5047989;28;20069;-89
2022/06/11 08:15:13;;;;;;;23.23;4.40;;;;;;;18.80;62.70;102105.72;5014725;28;20492;-88
2022/06/11 08:17:48;;;;;;;26.27;4.45;;;;;;;18.82;63.80;102102.72;5016383;28;20049;-88
2022/06/11 08:20:18;;;;;;;19.45;4.20;;;;;;;18.93;63.20;102099.97;5018508;28;20105;-89
2022/06/11 08:22:49;;;;;;;21.50;4.20;;;;;;;19.22;63.35;102100.06;5018526;28;20025;-88
2022/06/11 08:25:20;;;;;;;18.30;3.60;;;;;;;19.39;60.19;102104.81;5003235;28;20485;-88
2022/06/11 08:27:46;;;;;;;20.48;4.25;;;;;;;19.38;60.67;102101.19;5018484;28;20029;-89
2022/06/11 08:30:17;;;;;;;20.83;4.05;;;;;;;19.34;61.86;102097.28;5018419;28;20040;-89
2022/06/11 08:32:43;;;;;;;24.88;4.00;;;;;;;19.35;61.43;102103.59;5018331;28;20029;-89
2022/06/11 08:35:11;;;;;;;18.93;4.40;;;;;;;19.34;62.16;102107.44;5017723;28;20030;-88
2022/06/11 08:37:39;;;;;;;18.42;3.90;;;;;;;19.64;61.98;102105.28;5018309;28;20033;-89
2022/06/11 08:40:07;;;;;;;18.70;4.47;;;;;;;20.18;60.60;102106.00;5017850;28;20034;-88
2022/06/11 08:42:38;;;;;;;17.77;3.80;;;;;;;20.55;58.76;102097.22;5017556;28;20030;-88
2022/06/11 08:45:13;;;;;;;18.73;3.88;;;;;;;20.65;58.21;102105.63;5018343;28;20030;-89
2022/06/11 08:47:47;;;;;;;17.40;3.50;;;;;;;20.63;53.58;102107.81;5051618;28;20029;-89
2022/06/11 08:50:19;;;;;;;17.70;3.97;;;;;;;20.70;52.93;102110.41;5017797;28;20037;-89
2022/06/11 08:52:46;;;;;;;18.08;3.65;;;;;;;20.79;54.37;102104.22;5018182;28;20081;-88
2022/06/11 08:55:14;;;;;;;16.73;3.67;;;;;;;20.89;53.93;102097.19;5018300;28;20072;-89
2022/06/11 08:58:13;;;;;;;23.05;3.97;;;;;;;21.03;54.90;102104.00;5017722;28;20037;-89
2022/06/11 09:01:10;;;;;;;19.65;4.45;;;;;;;21.31;54.92;102105.72;5018658;28;20029;-88
2022/06/11 09:04:23;;;;;;;20.58;3.90;;;;;;;21.55;55.65;102108.25;5010930;28;20041;-89
2022/06/11 09:06:51;;;;;;;20.08;3.92;;;;;;;21.44;53.32;102123.03;5003730;28;20033;-88
2022/06/11 09:09:44;;;;;;;23.40;4.47;;;;;;;21.30;54.53;102111.50;5017667;28;20124;-89
2022/06/11 09:12:42;;;;;;;17.40;4.30;;;;;;;20.97;55.34;102121.59;5051108;28;20141;-88
2022/06/11 09:15:46;;;;;;;15.48;3.70;;;;;;;20.99;55.53;102102.84;5017879;28;20026;-89
2022/06/11 09:18:33;;;;;;;19.48;4.13;;;;;;;21.06;54.33;102095.22;5016401;28;20041;-89
2022/06/11 09:21:29;;;;;;;17.45;3.95;;;;;;;21.15;54.79;102099.19;5017803;28;20041;-88
2022/06/11 09:24:16;;;;;;;20.37;3.70;;;;;;;21.06;53.18;102113.69;5051131;28;20029;-89
2022/06/11 09:26:44;;;;;;;21.67;4.45;;;;;;;21.03;53.90;102101.25;5017778;28;20037;-89
2022/06/11 09:30:02;;;;;;;17.83;4.13;;;;;;;21.05;54.23;102101.81;5017548;28;20034;-89
2022/06/11 09:32:50;;;;;;;21.83;4.20;;;;;;;20.74;53.72;102095.03;4996610;28;20026;-89
2022/06/11 09:35:31;;;;;;;22.20;4.35;;;;;;;20.61;54.45;102099.81;4988707;28;20132;-88
2022/06/11 09:38:25;;;;;;;14.17;4.17;;;;;;;20.45;56.09;102109.75;5028619;28;20064;-88
2022/06/11 09:41:25;;;;;;;19.67;3.75;;;;;;;20.67;56.87;102100.75;5017090;28;20042;-88
2022/06/11 09:43:58;;;;;;;19.95;3.78;;;;;;;20.98;54.77;102102.00;5016922;28;20091;-89
2022/06/11 09:46:55;;;;;;;27.52;4.72;;;;;;;21.44;55.23;102100.94;5016380;28;20024;-89
2022/06/11 09:49:57;;;;;;;18.55;3.35;;;;;;;21.76;53.53;102100.19;5049557;28;20863;-88
2022/06/11 09:53:01;;;;;;;20.40;3.67;;;;;;;21.39;51.97;102107.19;5017054;28;20029;-89
2022/06/11 09:56:20;;;;;;;12.95;2.88;;;;;;;21.34;52.04;102099.69;5017438;28;20107;-88
2022/06/11 09:59:02;;;;;;;16.63;3.13;;;;;;;21.33;50.01;102100.81;5000482;28;20123;-88
2022/06/11 10:02:00;;;;;;;18.23;3.42;;;;;;;21.44;49.06;102107.28;5016862;28;20140;-88
2022/06/11 10:04:35;;;;;;;11.13;2.75;;;;;;;21.38;47.94;102113.84;4963393;28;20050;-88
2022/06/11 10:07:14;;;;;;;16.87;3.70;;;;;;;21.52;48.37;102095.78;5017214;28;20034;-88
2022/06/11 10:09:53;;;;;;;13.82;2.75;;;;;;;21.80;48.64;102099.41;5016358;28;20086;-88
2022/06/11 10:12:41;;;;;;;16.10;2.90;;;;;;;22.12;48.27;102104.13;5016639;28;20037;-88
2022/06/11 10:15:30;;;;;;;15.82;3.47;;;;;;;22.55;47.36;102104.22;5016680;28;20025;-88
2022/06/11 10:18:01;;;;;;;14.27;3.33;;;;;;;22.58;48.01;102092.63;5015762;28;20033;-89
2022/06/11 10:20:37;;;;;;;14.87;3.30;;;;;;;22.31;47.76;102109.25;5017231;28;20026;-88
2022/06/11 10:23:30;;;;;;;12.52;3.50;;;;;;;22.04;49.02;102101.81;5016286;28;20025;-89
2022/06/11 10:26:07;;;;;;;13.30;3.30;;;;;;;21.87;48.91;102099.19;5016273;28;20042;-88
2022/06/11 10:28:43;;;;;;;13.57;2.70;;;;;;;21.84;48.56;102106.06;5016486;28;20082;-89
2022/06/11 10:31:23;;;;;;;12.55;3.28;;;;;;;21.89;48.39;102100.63;5016852;28;20038;-88
2022/06/11 10:34:16;;;;;;;12.80;3.20;;;;;;;21.84;48.60;102103.31;5034001;28;20164;-89
2022/06/11 10:36:56;;;;;;;15.48;3.25;;;;;;;21.78;48.12;102114.59;5014958;28;20048;-88
2022/06/11 10:39:48;;;;;;;14.10;2.85;;;;;;;21.89;48.77;102108.91;5016288;28;20537;-88
2022/06/11 10:42:23;;;;;;;12.00;2.88;;;;;;;21.79;47.14;102102.41;5016351;28;20382;-89
2022/06/11 10:44:52;;;;;;;13.80;2.85;;;;;;;21.89;47.99;102121.88;5034616;28;20060;-88
2022/06/11 10:47:39;;;;;;;9.97;2.83;;;;;;;21.96;46.24;102105.91;5016121;28;20029;-89
2022/06/11 10:50:14;;;;;;;13.68;3.13;;;;;;;21.98;47.29;102113.94;5015554;28;20057;-88
2022/06/11 10:52:51;;;;;;;13.20;3.08;;;;;;;21.95;46.98;102104.22;5033641;28;20025;-89
2022/06/11 10:55:27;;;;;;;11.60;3.22;;;;;;;22.21;47.63;102102.53;5016711;28;20092;-88
2022/06/11 10:57:54;;;;;;;13.30;3.05;;;;;;;22.54;47.39;102097.00;5033649;28;20497;-89
2022/06/11 11:00:50;;;;;;;15.87;4.20;;;;;;;22.81;47.50;102105.22;5015953;28;20549;-89
2022/06/11 11:03:37;;;;;;;16.52;3.28;;;;;;;23.07;46.48;102097.03;5016147;28;20025;-87
2022/06/11 11:06:06;;;;;;;14.68;3.47;;;;;;;23.47;45.88;102095.53;5016837;28;20399;-88
2022/06/11 11:13:44;;;;;;;15.63;3.30;;;;;;;23.89;44.02;102090.97;5564333;22;20050;-82
2022/06/11 11:16:13;;;;;;;17.30;4.22;;;;;;;24.22;44.41;102092.34;5013367;28;20402;-82
2022/06/11 11:18:49;;;;;;;15.85;4.38;;;;;;;24.64;43.33;102091.22;5013682;28;20044;-82
2022/06/11 11:21:30;;;;;;;17.15;4.05;;;;;;;25.78;41.86;102083.22;5013543;28;20068;-82
2022/06/11 11:24:02;;;;;;;17.80;4.53;;;;;;;27.97;37.10;102084.97;5013466;28;20058;-82
2022/06/11 11:26:50;;;;;;;15.40;4.30;;;;;;;30.36;33.26;102067.28;5013418;28;20470;-82
2022/06/11 11:29:25;;;;;;;15.55;4.50;;;;;;;30.78;32.98;102087.44;5002609;28;20184;-82
2022/06/11 11:31:58;;;;;;;17.92;4.20;;;;;;;30.32;33.60;102079.44;5013683;28;20129;-82
2022/06/11 11:34:30;;;;;;;12.52;4.00;;;;;;;30.86;31.80;102074.63;4995874;28;20107;-81
2022/06/11 11:37:24;;;;;;;17.40;4.53;;;;;;;30.98;31.71;102078.78;4995800;28;20030;-82
2022/06/11 11:39:51;;;;;;;18.33;4.60;;;;;;;30.33;31.03;102070.72;4995195;28;20062;-82
2022/06/11 11:42:31;;;;;;;16.05;4.15;;;;;;;32.57;30.19;102070.81;5013142;28;20500;-82
2022/06/11 11:44:59;;;;;;;16.67;4.85;;;;;;;34.91;25.55;102075.91;4996018;28;20125;-82
2022/06/11 11:47:28;;;;;;;16.02;4.32;;;;;;;35.45;25.36;102064.31;4995444;28;20034;-82
2022/06/11 11:50:07;;;;;;;11.80;3.95;;;;;;;35.36;23.85;102071.25;4995162;28;20037;-83
2022/06/11 11:52:40;;;;;;;13.17;4.00;;;;;;;34.85;25.43;102075.31;5015469;28;20033;-82
2022/06/11 11:55:15;;;;;;;15.40;4.82;;;;;;;33.16;26.70;102069.16;4999140;28;20030;-82
2022/06/11 11:57:40;;;;;;;12.40;4.30;;;;;;;32.99;27.18;102065.31;4999290;28;20080;-82
2022/06/11 12:00:24;;;;;;;14.30;4.60;;;;;;;32.53;29.56;102072.63;4999143;28;20136;-82
2022/06/11 12:02:55;;;;;;;16.25;4.28;;;;;;;32.13;27.94;102065.34;5016681;28;20037;-83
2022/06/11 12:05:28;;;;;;;14.27;4.53;;;;;;;30.66;30.83;102061.19;5015667;28;20041;-82
2022/06/11 12:07:58;;;;;;;16.27;4.60;;;;;;;28.71;33.00;102059.06;4999354;28;20029;-82
2022/06/11 12:10:46;;;;;;;17.03;4.27;;;;;;;28.28;34.96;102054.56;4998515;28;20022;-82
2022/06/11 12:13:26;;;;;;;11.68;3.92;;;;;;;29.15;33.90;102046.41;5016226;28;20086;-82
2022/06/11 12:16:04;;;;;;;12.82;4.30;;;;;;;28.72;34.00;102049.56;4999534;28;20030;-82
2022/06/11 12:18:42;;;;;;;14.48;4.53;;;;;;;27.45;35.06;102057.03;5016558;28;20033;-82
2022/06/11 12:21:20;;;;;;;16.40;3.90;;;;;;;27.09;36.88;102054.69;5016491;28;20060;-82
2022/06/11 12:23:51;;;;;;;13.67;4.17;;;;;;;26.48;37.30;102045.09;4999086;28;20087;-82
2022/06/11 12:26:41;;;;;;;13.98;3.90;;;;;;;26.56;38.11;102052.78;4999228;28;20022;-82
2022/06/11 12:29:26;;;;;;;15.15;3.80;;;;;;;26.83;37.53;102054.22;5002373;28;20045;-83
2022/06/11 12:31:54;;;;;;;15.45;4.18;;;;;;;27.13;37.79;102056.56;4998534;28;20033;-82
2022/06/11 12:34:24;;;;;;;15.27;4.40;;;;;;;27.58;36.30;102044.25;5014986;28;20457;-82
2022/06/11 12:37:01;;;;;;;15.80;4.07;;;;;;;27.32;36.95;102041.84;5016251;28;20430;-82
2022/06/11 12:39:51;;;;;;;13.13;3.80;;;;;;;28.22;36.47;102053.00;4998535;28;20198;-81
2022/06/11 12:42:26;;;;;;;13.23;3.75;;;;;;;30.69;31.39;102047.34;4998383;28;20057;-82
2022/06/11 12:44:57;;;;;;;13.07;3.60;;;;;;;30.67;31.23;102046.03;5016482;28;20520;-82
2022/06/11 12:47:35;;;;;;;15.02;4.20;;;;;;;29.83;33.43;102049.34;4998449;28;20037;-82
2022/06/11 12:50:48;;;;;;;16.67;4.57;;;;;;;29.96;33.53;102053.22;4998407;28;20469;-82
2022/06/11 12:53:51;;;;;;;13.38;3.83;;;;;;;29.77;33.27;102049.78;4974527;28;20027;-82
2022/06/11 12:56:30;;;;;;;13.75;3.85;;;;;;;30.14;33.31;102056.16;4974968;28;20042;-82
2022/06/11 12:59:03;;;;;;;13.52;3.53;;;;;;;30.46;31.42;102051.38;4993108;28;20477;-82
2022/06/11 13:01:48;;;;;;;17.85;4.15;;;;;;;29.84;32.83;102062.19;4998374;28;20030;-82
2022/06/11 13:04:31;;;;;;;12.63;3.43;;;;;;;29.67;31.46;102046.06;4997272;28;20536;-82
2022/06/11 13:07:11;;;;;;;9.82;3.17;;;;;;;30.23;31.79;102057.81;5015538;28;20065;-82
2022/06/11 13:10:19;;;;;;;11.00;3.55;;;;;;;30.08;31.46;102053.47;4997641;28;20022;-82
2022/06/11 13:13:14;;;;;;;11.82;3.17;;;;;;;31.66;29.40;102054.00;4992048;28;20038;-83
2022/06/11 13:15:49;;;;;;;9.43;2.97;;;;;;;34.39;26.75;102050.03;5014265;28;20037;-82
2022/06/11 13:18:40;;;;;;;9.43;2.90;;;;;;;36.58;25.38;102049.22;4998168;28;20567;-83
2022/06/11 13:21:23;;;;;;;11.63;3.47;;;;;;;36.57;23.01;102046.75;4997777;28;20030;-82
2022/06/11 13:24:08;;;;;;;8.40;3.60;;;;;;;38.57;22.67;102048.47;4997365;28;20085;-83
2022/06/11 13:27:16;;;;;;;11.98;3.67;;;;;;;39.73;20.69;102050.91;4997934;28;20033;-83
2022/06/11 13:30:14;;;;;;;11.05;3.70;;;;;;;42.17;20.67;102045.94;4997444;28;20120;-82
2022/06/11 13:32:42;;;;;;;8.53;3.70;;;;;;;43.15;16.80;102038.03;4989328;28;20126;-82
2022/06/11 13:35:17;;;;;;;9.65;3.40;;;;;;;40.77;18.39;102042.50;4997358;28;20137;-83
2022/06/11 13:37:42;;;;;;;7.55;3.63;;;;;;;37.26;21.16;102041.53;5015003;28;20536;-83
2022/06/11 13:40:32;;;;;;;11.43;3.50;;;;;;;37.00;23.42;102042.97;4996812;28;20041;-83
2022/06/11 13:43:30;;;;;;;12.68;3.90;;;;;;;39.41;20.53;102039.97;4997675;28;20501;-83
2022/06/11 13:46:12;;;;;;;10.85;3.90;;;;;;;38.26;20.23;102022.88;4997094;28;20470;-83
2022/06/11 13:48:41;;;;;;;10.10;3.90;;;;;;;39.78;18.92;102031.50;4997186;28;20129;-83
2022/06/11 13:51:13;;;;;;;8.67;3.53;;;;;;;41.35;18.20;102023.75;5014514;28;20033;-83
2022/06/11 13:57:22;;;;;;;9.70;3.70;;;;;;;41.82;17.65;102033.25;5014836;28;20087;-83
2022/06/11 14:00:20;;;;;;;9.40;3.88;;;;;;;40.89;18.53;102027.97;4997262;28;20026;-83
2022/06/11 14:03:24;;;;;;;8.43;3.78;;;;;;;41.54;17.93;102011.19;4997124;28;20033;-83
2022/06/11 14:05:52;;;;;;;10.33;3.70;;;;;;;43.44;16.18;102007.31;5014314;28;20488;-83
2022/06/11 14:08:20;;;;;;;12.13;4.28;;;;;;;42.14;16.22;102008.81;5014559;28;20026;-83
2022/06/11 14:10:48;;;;;;;14.25;5.00;;;;;;;39.33;18.59;102012.69;4996682;28;20037;-84
2022/06/11 14:13:53;;;;;;;18.13;6.03;;;;;;;37.44;21.02;102010.78;5000970;28;20067;-83
2022/06/11 14:16:31;;;;;;;13.57;4.85;;;;;;;36.87;22.07;102002.69;5009962;28;20041;-83
2022/06/11 14:18:57;;;;;;;11.73;4.60;;;;;;;35.36;22.75;101992.28;5017117;28;20037;-82
2022/06/11 14:21:38;;;;;;;13.70;4.90;;;;;;;33.57;25.75;101995.25;5035097;28;20466;-83
2022/06/11 14:24:09;;;;;;;14.65;4.63;;;;;;;35.82;23.64;101999.25;5016646;28;20508;-82
2022/06/11 14:26:54;;;;;;;11.60;4.45;;;;;;;38.78;20.42;102005.47;5034199;28;20030;-83
2022/06/11 14:29:34;;;;;;;11.05;4.43;;;;;;;39.11;19.01;102001.91;5016038;28;20030;-83
2022/06/11 14:32:04;;;;;;;10.57;4.30;;;;;;;38.35;19.87;102001.97;5016184;28;20060;-83
2022/06/11 14:34:35;;;;;;;12.32;4.65;;;;;;;38.52;20.76;101992.09;5015978;28;20120;-83
2022/06/11 14:37:27;;;;;;;12.93;4.25;;;;;;;40.43;19.39;101986.59;5015900;28;20103;-83
2022/06/11 14:40:11;;;;;;;12.73;4.50;;;;;;;42.12;17.73;101994.19;5015942;28;20128;-83
2022/06/11 14:43:00;;;;;;;11.63;4.28;;;;;;;42.67;17.59;102001.47;5015775;28;20124;-83
2022/06/11 14:45:44;;;;;;;11.30;4.47;;;;;;;40.46;18.16;101987.88;5015655;28;20389;-83
2022/06/11 14:48:12;;;;;;;11.25;3.78;;;;;;;39.65;18.86;101987.53;5015823;28;20120;-83
2022/06/11 14:51:02;;;;;;;16.30;4.55;;;;;;;40.40;18.56;101980.91;5015993;28;20465;-83
2022/06/11 14:53:43;;;;;;;9.73;4.15;;;;;;;37.78;19.95;101979.91;5015710;28;20068;-83
2022/06/11 14:56:17;;;;;;;10.20;3.78;;;;;;;38.21;19.81;101971.34;5033807;28;20037;-82
2022/06/11 14:58:48;;;;;;;7.90;3.73;;;;;;;39.43;18.48;101975.09;5033443;28;20083;-83
2022/06/11 15:01:22;;;;;;;8.00;3.83;;;;;;;38.07;19.44;101972.72;5015800;28;20129;-83
2022/06/11 15:04:08;;;;;;;7.13;3.50;;;;;;;35.54;21.89;101976.69;5032939;28;20037;-83
2022/06/11 15:06:45;;;;;;;7.45;3.22;;;;;;;33.18;23.92;101976.88;5015662;28;20039;-83
2022/06/11 15:09:20;;;;;;;10.75;3.30;;;;;;;32.15;25.33;101984.41;5015747;28;20448;-83
2022/06/11 15:12:11;;;;;;;7.37;3.03;;;;;;;31.35;27.25;101973.63;5033330;28;20037;-83
2022/06/11 15:14:37;;;;;;;8.90;3.10;;;;;;;33.69;24.73;101973.94;5015516;28;20088;-83
2022/06/11 15:17:12;;;;;;;9.55;3.60;;;;;;;34.47;23.40;101968.59;5015065;28;20057;-83
2022/06/11 15:19:45;;;;;;;6.87;3.07;;;;;;;35.09;22.75;101969.31;5015494;28;20033;-83
2022/06/11 15:22:19;;;;;;;9.35;2.97;;;;;;;35.55;22.32;101980.31;5015519;28;20021;-82
2022/06/11 15:24:56;;;;;;;10.40;3.60;;;;;;;35.06;22.99;101970.03;5015571;28;20038;-84
2022/06/11 15:27:31;;;;;;;11.07;3.60;;;;;;;35.74;22.18;101983.25;5017985;28;20197;-83
2022/06/11 15:30:21;;;;;;;15.30;3.33;;;;;;;36.48;22.36;101976.31;5019484;28;20121;-83
2022/06/11 15:32:47;;;;;;;7.83;3.20;;;;;;;37.31;20.36;101972.50;5019228;28;20036;-83
2022/06/11 15:35:31;;;;;;;12.40;3.45;;;;;;;36.58;21.20;101983.41;5002914;28;20064;-83
2022/06/11 15:38:00;;;;;;;7.68;3.50;;;;;;;36.24;21.42;101975.28;5019037;28;20163;-83
2022/06/11 15:40:50;;;;;;;8.20;3.55;;;;;;;34.63;23.53;101979.97;5018922;28;20041;-83
2022/06/11 15:43:23;;;;;;;6.00;2.80;;;;;;;33.26;25.01;101980.81;5019029;28;20041;-83
2022/06/11 15:45:57;;;;;;;12.73;3.63;;;;;;;33.01;25.42;101981.50;5036695;28;20404;-83
2022/06/11 15:48:32;;;;;;;11.88;3.92;;;;;;;32.79;25.50;101973.38;5019281;28;20091;-83
2022/06/11 15:51:19;;;;;;;12.15;3.53;;;;;;;32.83;26.07;101972.34;5036895;28;20538;-83
2022/06/11 15:57:31;;;;;;;8.80;3.28;;;;;;;32.01;27.21;101987.41;5032886;28;20040;-83
2022/06/11 16:00:52;;;;;;;8.80;3.20;;;;;;;30.98;27.93;101975.91;5023768;28;20033;-83
2022/06/11 16:06:06;;;;;;;8.15;2.65;;;;;;;30.56;28.98;101967.09;5036523;28;20045;-83
2022/06/11 16:08:48;;;;;;;7.38;2.70;;;;;;;30.49;29.47;101958.34;5018651;28;20123;-82
2022/06/11 16:11:36;;;;;;;9.30;3.05;;;;;;;30.56;28.42;101976.34;5018404;28;20476;-84
2022/06/11 16:14:18;;;;;;;8.43;3.30;;;;;;;31.15;27.96;101961.09;5018593;28;20497;-84
2022/06/11 16:16:49;;;;;;;7.72;3.47;;;;;;;31.10;27.52;101955.69;5018560;28;20068;-83